createdAt,value
2019-03-28T00:00:43.061Z,74.60
2019-03-28T00:01:43.083Z,74.40
2019-03-28T00:02:43.045Z,74.29
2019-03-28T00:03:43.052Z,76.28
2019-03-28T00:04:43.025Z,75.32
2019-03-28T00:05:43.010Z,75.63
2019-03-28T00:06:43.012Z,76.45
2019-03-28T00:07:42.982Z,76.48
2019-03-28T00:08:42.969Z,76.69
2019-03-28T00:09:42.966Z,76.59
2019-03-28T00:10:42.987Z,76.28
2019-03-28T00:11:42.938Z,75.67
2019-03-28T00:12:42.926Z,76.48
2019-03-28T00:13:42.917Z,76.59
2019-03-28T00:14:43.205Z,76.28
2019-03-28T00:15:42.917Z,75.35
2019-03-28T00:16:42.909Z,76.48
2019-03-28T00:17:42.866Z,76.48
2019-03-28T00:18:42.857Z,78.54
2019-03-28T00:19:42.850Z,78.54
2019-03-28T00:20:42.838Z,77.62
2019-03-28T00:21:42.846Z,77.51
2019-03-28T00:22:42.816Z,78.33
2019-03-28T00:23:42.822Z,79.05
2019-03-28T00:24:42.787Z,78.75
2019-03-28T00:25:42.812Z,78.96
2019-03-28T00:26:42.776Z,78.03
2019-03-28T00:27:42.754Z,78.33
2019-03-28T00:28:42.744Z,78.64
2019-03-28T00:29:42.731Z,79.05
2019-03-28T00:30:42.747Z,79.19
2019-03-28T00:31:42.716Z,79.47
2019-03-28T00:32:42.706Z,79.50
2019-03-28T00:33:42.690Z,80.33
2019-03-28T00:34:42.709Z,80.53
2019-03-28T00:35:42.661Z,80.84
2019-03-28T00:36:42.653Z,81.46
2019-03-28T00:37:42.645Z,80.94
2019-03-28T00:38:42.662Z,80.84
2019-03-28T00:39:42.654Z,81.46
2019-03-28T00:40:42.606Z,80.74
2019-03-28T00:41:42.595Z,81.87
2019-03-28T00:42:42.652Z,82.11
2019-03-28T00:43:42.582Z,82.01
2019-03-28T00:44:42.570Z,81.91
2019-03-28T00:45:44.550Z,82.21
2019-03-28T00:46:42.559Z,81.49
2019-03-28T00:47:42.528Z,81.81
2019-03-28T00:48:42.526Z,82.11
2019-03-28T00:49:43.185Z,82.83
2019-03-28T00:50:42.493Z,83.25
2019-03-28T00:51:43.343Z,83.25
2019-03-28T00:52:42.470Z,84.17
2019-03-28T00:53:42.458Z,84.07
2019-03-28T00:54:42.453Z,83.65
2019-03-28T00:55:42.459Z,83.65
2019-03-28T00:56:46.814Z,83.35
2019-03-28T00:57:42.444Z,84.07
2019-03-28T00:58:42.403Z,83.86
2019-03-28T00:59:42.393Z,84.07
2019-03-28T01:00:42.389Z,84.69
2019-03-28T01:01:42.399Z,84.58
2019-03-28T01:02:42.358Z,84.42
2019-03-28T01:03:42.352Z,84.58
2019-03-28T01:04:42.336Z,84.31
2019-03-28T01:05:42.438Z,84.48
2019-03-28T01:06:42.312Z,84.69
2019-03-28T01:07:42.302Z,84.72
2019-03-28T01:08:42.315Z,84.48
2019-03-28T01:09:42.303Z,84.83
2019-03-28T01:10:42.266Z,85.03
2019-03-28T01:11:42.255Z,85.24
2019-03-28T01:12:42.273Z,85.34
2019-03-28T01:13:42.232Z,85.71
2019-03-28T01:14:42.221Z,85.03
2019-03-28T01:15:42.217Z,85.55
2019-03-28T01:16:42.203Z,85.14
2019-03-28T01:17:42.208Z,85.55
2019-03-28T01:18:42.175Z,85.34
2019-03-28T01:19:42.186Z,85.44
2019-03-28T01:20:42.156Z,85.65
2019-03-28T01:21:42.143Z,86.47
2019-03-28T01:22:42.131Z,86.68
2019-03-28T01:23:42.146Z,86.27
2019-03-28T01:24:42.107Z,86.79
2019-03-28T01:25:42.096Z,85.96
2019-03-28T01:26:42.091Z,86.58
2019-03-28T01:27:42.078Z,86.58
2019-03-28T01:28:42.081Z,86.47
2019-03-28T01:29:42.053Z,86.16
2019-03-28T01:30:42.086Z,86.47
2019-03-28T01:31:42.035Z,86.27
2019-03-28T01:32:42.039Z,86.47
2019-03-28T01:33:42.006Z,85.86
2019-03-28T01:34:42.020Z,85.65
2019-03-28T01:35:42.007Z,86.16
2019-03-28T01:36:41.976Z,85.96
2019-03-28T01:37:41.960Z,86.47
2019-03-28T01:38:41.952Z,86.68
2019-03-28T01:39:41.963Z,86.47
2019-03-28T01:40:41.934Z,85.96
2019-03-28T01:41:41.916Z,86.47
2019-03-28T01:42:41.927Z,86.58
2019-03-28T01:43:41.892Z,86.16
2019-03-28T01:44:41.883Z,86.58
2019-03-28T01:45:41.895Z,86.68
2019-03-28T01:46:41.860Z,86.58
2019-03-28T01:47:41.846Z,86.88
2019-03-28T01:48:41.839Z,86.88
2019-03-28T01:49:41.826Z,86.58
2019-03-28T01:50:41.840Z,87.03
2019-03-28T01:51:41.810Z,87.34
2019-03-28T01:52:41.792Z,87.13
2019-03-28T01:53:41.781Z,86.72
2019-03-28T01:54:41.768Z,87.24
2019-03-28T01:55:41.782Z,87.24
2019-03-28T01:56:41.748Z,87.96
2019-03-28T01:57:41.762Z,88.06
2019-03-28T01:58:41.723Z,87.03
2019-03-28T01:59:41.713Z,87.85
2019-03-28T02:00:41.700Z,88.20
2019-03-28T02:01:41.711Z,88.37
2019-03-28T02:02:41.677Z,87.90
2019-03-28T02:03:41.691Z,87.90
2019-03-28T02:04:41.656Z,88.20
2019-03-28T02:05:41.645Z,88.82
2019-03-28T02:06:41.632Z,88.62
2019-03-28T02:07:41.654Z,88.41
2019-03-28T02:08:41.665Z,88.82
2019-03-28T02:09:41.602Z,89.13
2019-03-28T02:10:41.589Z,89.03
2019-03-28T02:11:41.578Z,88.72
2019-03-28T02:12:41.568Z,88.82
2019-03-28T02:13:41.578Z,89.44
2019-03-28T02:14:41.564Z,89.23
2019-03-28T02:15:41.534Z,89.23
2019-03-28T02:16:41.522Z,89.03
2019-03-28T02:17:41.510Z,89.03
2019-03-28T02:18:41.532Z,89.34
2019-03-28T02:19:41.488Z,88.51
2019-03-28T02:20:41.479Z,88.62
2019-03-28T02:21:41.467Z,88.92
2019-03-28T02:22:41.472Z,89.13
2019-03-28T02:23:41.466Z,88.51
2019-03-28T02:24:41.434Z,88.62
2019-03-28T02:25:41.421Z,88.31
2019-03-28T02:26:41.429Z,87.90
2019-03-28T02:27:41.429Z,87.99
2019-03-28T02:28:41.434Z,88.41
2019-03-28T02:29:41.375Z,88.62
2019-03-28T02:30:41.395Z,88.41
2019-03-28T02:31:41.375Z,88.72
2019-03-28T02:32:41.349Z,88.41
2019-03-28T02:33:41.340Z,88.92
2019-03-28T02:34:41.319Z,89.13
2019-03-28T02:35:41.342Z,89.03
2019-03-28T02:36:41.301Z,89.13
2019-03-28T02:37:41.286Z,88.92
2019-03-28T02:38:41.378Z,87.90
2019-03-28T02:39:41.262Z,87.90
2019-03-28T02:40:41.968Z,88.31
2019-03-28T02:41:41.240Z,88.41
2019-03-28T02:42:41.227Z,87.90
2019-03-28T02:43:41.242Z,87.79
2019-03-28T02:44:41.249Z,88.41
2019-03-28T02:45:41.264Z,88.10
2019-03-28T02:46:41.204Z,87.90
2019-03-28T02:47:41.299Z,87.99
2019-03-28T02:48:41.162Z,88.10
2019-03-28T02:49:41.181Z,87.90
2019-03-28T02:50:41.143Z,88.10
2019-03-28T02:51:41.134Z,88.31
2019-03-28T02:52:41.113Z,88.17
2019-03-28T02:53:41.133Z,88.26
2019-03-28T02:54:41.115Z,87.90
2019-03-28T02:55:41.079Z,87.96
2019-03-28T02:56:41.807Z,87.85
2019-03-28T02:57:43.573Z,88.20
2019-03-28T02:58:41.046Z,88.06
2019-03-28T02:59:41.044Z,88.20
2019-03-28T03:00:41.030Z,87.75
2019-03-28T03:01:41.042Z,88.47
2019-03-28T03:02:41.001Z,87.75
2019-03-28T03:03:40.990Z,87.96
2019-03-28T03:04:40.977Z,87.75
2019-03-28T03:05:40.972Z,87.99
2019-03-28T03:06:40.984Z,87.75
2019-03-28T03:07:41.728Z,87.96
2019-03-28T03:08:40.933Z,87.96
2019-03-28T03:09:40.922Z,88.37
2019-03-28T03:10:40.912Z,88.26
2019-03-28T03:11:42.784Z,88.17
2019-03-28T03:12:40.898Z,87.75
2019-03-28T03:13:40.902Z,87.75
2019-03-28T03:14:40.865Z,88.31
2019-03-28T03:15:40.883Z,88.37
2019-03-28T03:16:40.848Z,88.68
2019-03-28T03:17:41.509Z,88.92
2019-03-28T03:18:40.902Z,88.26
2019-03-28T03:19:40.836Z,88.47
2019-03-28T03:20:40.798Z,88.68
2019-03-28T03:21:40.813Z,89.09
2019-03-28T03:22:40.779Z,88.68
2019-03-28T03:23:40.767Z,88.68
2019-03-28T03:24:40.803Z,88.57
2019-03-28T03:25:40.745Z,88.47
2019-03-28T03:26:40.732Z,88.78
2019-03-28T03:27:56.294Z,89.03
2019-03-28T03:28:41.711Z,89.19
2019-03-28T03:29:40.726Z,89.09
2019-03-28T03:30:40.688Z,88.89
2019-03-28T03:31:40.677Z,89.09
2019-03-28T03:32:40.694Z,89.61
2019-03-28T03:33:40.681Z,90.12
2019-03-28T03:34:40.651Z,90.22
2019-03-28T03:35:40.645Z,89.71
2019-03-28T03:36:40.651Z,90.01
2019-03-28T03:37:40.607Z,90.16
2019-03-28T03:38:40.598Z,89.71
2019-03-28T03:39:40.588Z,89.54
2019-03-28T03:40:40.592Z,89.95
2019-03-28T03:41:40.596Z,89.61
2019-03-28T03:42:40.556Z,88.89
2019-03-28T03:43:40.542Z,88.89
2019-03-28T03:44:41.995Z,90.01
2019-03-28T03:45:40.602Z,90.53
2019-03-28T03:46:40.530Z,90.57
2019-03-28T03:47:40.517Z,90.53
2019-03-28T03:48:40.487Z,90.64
2019-03-28T03:49:40.507Z,90.73
2019-03-28T03:50:40.468Z,90.78
2019-03-28T03:51:40.744Z,90.78
2019-03-28T03:52:41.595Z,90.47
2019-03-28T03:53:40.431Z,90.26
2019-03-28T03:54:40.447Z,89.91
2019-03-28T03:55:40.406Z,90.88
2019-03-28T03:56:40.395Z,90.67
2019-03-28T03:57:40.394Z,90.99
2019-03-28T03:58:40.404Z,90.99
2019-03-28T03:59:40.360Z,90.88
2019-03-28T04:00:40.382Z,90.47
2019-03-28T04:01:40.346Z,90.67
2019-03-28T04:02:40.352Z,90.47
2019-03-28T04:03:40.336Z,90.99
2019-03-28T04:04:41.081Z,90.99
2019-03-28T04:05:40.344Z,90.88
2019-03-28T04:06:40.287Z,90.47
2019-03-28T04:07:40.278Z,90.57
2019-03-28T04:08:40.288Z,90.67
2019-03-28T04:09:40.252Z,90.88
2019-03-28T04:10:40.260Z,90.67
2019-03-28T04:11:40.229Z,90.57
2019-03-28T04:12:40.226Z,90.57
2019-03-28T04:13:40.204Z,90.78
2019-03-28T04:14:40.224Z,90.67
2019-03-28T04:15:40.218Z,90.67
2019-03-28T04:16:40.170Z,90.78
2019-03-28T04:17:40.200Z,90.99
2019-03-28T04:18:40.219Z,91.60
2019-03-28T04:19:40.141Z,91.50
2019-03-28T04:20:40.149Z,91.19
2019-03-28T04:21:40.139Z,90.88
2019-03-28T04:22:40.114Z,91.15
2019-03-28T04:23:40.108Z,91.40
2019-03-28T04:24:40.102Z,91.60
2019-03-28T04:25:40.219Z,91.30
2019-03-28T04:26:40.055Z,91.19
2019-03-28T04:27:40.045Z,91.30
2019-03-28T04:28:40.033Z,91.60
2019-03-28T04:29:40.048Z,91.19
2019-03-28T04:30:40.011Z,91.30
2019-03-28T04:31:40.008Z,91.19
2019-03-28T04:32:39.999Z,90.94
2019-03-28T04:33:39.976Z,91.19
2019-03-28T04:34:39.991Z,91.50
2019-03-28T04:35:39.960Z,92.02
2019-03-28T04:36:40.838Z,91.40
2019-03-28T04:37:39.940Z,91.19
2019-03-28T04:38:39.923Z,92.02
2019-03-28T04:39:39.983Z,92.12
2019-03-28T04:40:39.922Z,91.91
2019-03-28T04:41:39.891Z,91.81
2019-03-28T04:42:39.883Z,92.53
2019-03-28T04:43:39.869Z,91.91
2019-03-28T04:44:39.852Z,92.12
2019-03-28T04:45:39.866Z,92.43
2019-03-28T04:46:39.882Z,92.12
2019-03-28T04:47:39.822Z,92.43
2019-03-28T04:48:39.807Z,92.22
2019-03-28T04:49:39.799Z,92.33
2019-03-28T04:50:39.813Z,92.12
2019-03-28T04:51:39.772Z,91.91
2019-03-28T04:52:39.765Z,92.12
2019-03-28T04:53:39.759Z,92.22
2019-03-28T04:54:39.738Z,92.02
2019-03-28T04:55:39.758Z,92.12
2019-03-28T04:56:39.718Z,92.12
2019-03-28T04:57:41.210Z,93.05
2019-03-28T04:58:44.627Z,93.05
2019-03-28T04:59:41.374Z,92.22
2019-03-28T05:00:39.708Z,93.05
2019-03-28T05:01:39.703Z,92.12
2019-03-28T05:02:39.648Z,92.90
2019-03-28T05:03:39.675Z,91.97
2019-03-28T05:04:40.453Z,92.29
2019-03-28T05:05:39.631Z,92.22
2019-03-28T05:06:39.616Z,92.12
2019-03-28T05:07:39.607Z,92.94
2019-03-28T05:08:39.617Z,92.84
2019-03-28T05:09:39.579Z,92.63
2019-03-28T05:10:39.562Z,92.53
2019-03-28T05:11:39.559Z,92.22
2019-03-28T05:12:39.544Z,92.84
2019-03-28T05:13:39.584Z,92.74
2019-03-28T05:14:40.380Z,92.63
2019-03-28T05:15:39.539Z,92.74
2019-03-28T05:16:39.499Z,92.63
2019-03-28T05:17:40.394Z,92.74
2019-03-28T05:18:39.472Z,92.43
2019-03-28T05:19:39.535Z,92.53
2019-03-28T05:20:40.431Z,92.43
2019-03-28T05:21:39.436Z,92.02
2019-03-28T05:22:39.440Z,92.22
2019-03-28T05:23:39.461Z,92.02
2019-03-28T05:24:39.442Z,93.25
2019-03-28T05:25:39.395Z,93.05
2019-03-28T05:26:39.394Z,92.94
2019-03-28T05:27:39.399Z,92.94
2019-03-28T05:28:39.362Z,93.15
2019-03-28T05:29:39.352Z,93.21
2019-03-28T05:30:39.392Z,93.46
2019-03-28T05:31:39.323Z,93.11
2019-03-28T05:32:39.326Z,93.25
2019-03-28T05:33:39.320Z,92.69
2019-03-28T05:34:39.328Z,92.74
2019-03-28T05:35:39.284Z,92.53
2019-03-28T05:36:39.275Z,92.43
2019-03-28T05:37:39.260Z,92.38
2019-03-28T05:38:39.251Z,92.94
2019-03-28T05:39:39.261Z,93.25
2019-03-28T05:40:39.229Z,92.94
2019-03-28T05:41:39.215Z,92.94
2019-03-28T05:42:39.201Z,93.11
2019-03-28T05:43:39.214Z,93.25
2019-03-28T05:44:39.188Z,93.35
2019-03-28T05:45:39.183Z,93.15
2019-03-28T05:46:39.196Z,92.69
2019-03-28T05:47:39.169Z,93.05
2019-03-28T05:48:39.131Z,92.90
2019-03-28T05:49:39.130Z,92.63
2019-03-28T05:50:39.112Z,92.90
2019-03-28T05:51:39.117Z,92.80
2019-03-28T05:52:39.127Z,93.05
2019-03-28T05:53:39.079Z,93.31
2019-03-28T05:54:39.064Z,93.52
2019-03-28T05:55:39.076Z,93.73
2019-03-28T05:56:39.081Z,93.31
2019-03-28T05:57:39.032Z,93.21
2019-03-28T05:58:39.025Z,92.80
2019-03-28T05:59:39.033Z,92.76
2019-03-28T06:00:40.164Z,92.65
2019-03-28T06:01:39.008Z,92.76
2019-03-28T06:02:38.978Z,92.65
2019-03-28T06:03:38.959Z,92.65
2019-03-28T06:04:38.958Z,93.16
2019-03-28T06:05:38.938Z,92.44
2019-03-28T06:06:38.949Z,92.03
2019-03-28T06:07:38.918Z,92.65
2019-03-28T06:08:38.952Z,92.30
2019-03-28T06:09:40.274Z,92.61
2019-03-28T06:10:38.889Z,92.71
2019-03-28T06:11:38.904Z,92.71
2019-03-28T06:12:38.873Z,92.16
2019-03-28T06:13:38.858Z,92.50
2019-03-28T06:14:38.852Z,92.46
2019-03-28T06:15:41.024Z,92.67
2019-03-28T06:16:38.848Z,92.36
2019-03-28T06:17:38.803Z,92.25
2019-03-28T06:18:38.807Z,91.74
2019-03-28T06:19:38.805Z,91.39
2019-03-28T06:20:38.807Z,91.74
2019-03-28T06:21:39.742Z,91.60
2019-03-28T06:22:39.561Z,91.80
2019-03-28T06:23:39.407Z,91.80
2019-03-28T06:24:38.752Z,91.44
2019-03-28T06:25:40.891Z,90.61
2019-03-28T06:26:38.749Z,90.47
2019-03-28T06:27:38.690Z,90.47
2019-03-28T06:28:38.685Z,90.57
2019-03-28T06:29:38.670Z,90.36
2019-03-28T06:30:38.699Z,90.78
2019-03-28T06:31:38.679Z,90.36
2019-03-28T06:32:43.238Z,90.26
2019-03-28T06:33:38.645Z,90.47
2019-03-28T06:34:38.618Z,90.06
2019-03-28T06:35:38.601Z,90.16
2019-03-28T06:36:38.610Z,90.98
2019-03-28T06:37:38.593Z,90.67
2019-03-28T06:38:38.597Z,90.57
2019-03-28T06:39:38.567Z,90.47
2019-03-28T06:40:38.554Z,90.78
2019-03-28T06:41:38.532Z,90.26
2019-03-28T06:42:38.557Z,90.26
2019-03-28T06:43:38.535Z,90.47
2019-03-28T06:44:38.546Z,89.85
2019-03-28T06:45:38.495Z,90.36
2019-03-28T06:46:38.485Z,89.75
2019-03-28T06:47:38.572Z,89.85
2019-03-28T06:48:38.477Z,89.95
2019-03-28T06:49:38.514Z,89.91
2019-03-28T06:50:38.434Z,89.91
2019-03-28T06:51:38.421Z,89.44
2019-03-28T06:52:38.443Z,90.12
2019-03-28T06:53:38.535Z,89.50
2019-03-28T06:54:38.416Z,89.50
2019-03-28T06:55:38.390Z,89.29
2019-03-28T06:56:38.384Z,89.19
2019-03-28T06:57:38.353Z,88.89
2019-03-28T06:58:38.346Z,88.68
2019-03-28T06:59:38.368Z,88.47
2019-03-28T07:00:38.325Z,88.68
2019-03-28T07:01:38.312Z,88.68
2019-03-28T07:02:38.304Z,88.84
2019-03-28T07:03:38.493Z,88.64
2019-03-28T07:04:38.307Z,88.64
2019-03-28T07:05:38.271Z,89.04
2019-03-28T07:06:38.255Z,89.31
2019-03-28T07:07:38.265Z,88.70
2019-03-28T07:08:38.232Z,88.23
2019-03-28T07:09:38.239Z,88.39
2019-03-28T07:10:38.209Z,88.29
2019-03-28T07:11:38.222Z,87.98
2019-03-28T07:12:38.190Z,88.29
2019-03-28T07:13:38.188Z,87.88
2019-03-28T07:14:38.162Z,87.71
2019-03-28T07:15:38.220Z,88.02
2019-03-28T07:16:38.146Z,87.82
2019-03-28T07:17:38.139Z,87.98
2019-03-28T07:18:38.119Z,87.77
2019-03-28T07:19:38.107Z,87.77
2019-03-28T07:20:38.109Z,87.46
2019-03-28T07:21:38.089Z,87.88
2019-03-28T07:22:38.085Z,87.05
2019-03-28T07:23:38.080Z,86.44
2019-03-28T07:24:38.101Z,87.02
2019-03-28T07:25:38.044Z,87.12
2019-03-28T07:26:38.029Z,85.62
2019-03-28T07:27:38.074Z,85.47
2019-03-28T07:28:38.035Z,85.47
2019-03-28T07:29:50.221Z,86.60
2019-03-28T07:30:39.005Z,86.19
2019-03-28T07:31:37.978Z,85.03
2019-03-28T07:32:37.966Z,86.25
2019-03-28T07:33:38.070Z,86.36
2019-03-28T07:34:37.933Z,85.44
2019-03-28T07:35:37.921Z,85.44
2019-03-28T07:36:37.917Z,84.61
2019-03-28T07:37:38.583Z,84.58
2019-03-28T07:38:37.898Z,84.47
2019-03-28T07:39:37.889Z,85.50
2019-03-28T07:40:37.873Z,84.84
2019-03-28T07:41:37.861Z,85.01
2019-03-28T07:42:37.880Z,85.56
2019-03-28T07:43:37.845Z,84.09
2019-03-28T07:44:37.827Z,83.06
2019-03-28T07:45:37.831Z,82.76
2019-03-28T07:46:37.806Z,83.13
2019-03-28T07:47:37.830Z,82.51
2019-03-28T07:48:37.812Z,82.21
2019-03-28T07:49:37.873Z,80.77
2019-03-28T07:50:37.793Z,80.77
2019-03-28T07:51:37.766Z,81.56
2019-03-28T07:52:37.736Z,81.56
2019-03-28T07:53:37.781Z,81.31
2019-03-28T07:54:37.738Z,81.62
2019-03-28T07:55:37.710Z,80.80
2019-03-28T07:56:37.693Z,79.64
2019-03-28T07:57:37.679Z,80.35
2019-03-28T07:58:37.784Z,79.57
2019-03-28T07:59:37.657Z,79.47
2019-03-28T08:00:37.649Z,79.41
2019-03-28T08:01:37.639Z,80.36
2019-03-28T08:02:37.651Z,81.18
2019-03-28T08:03:39.901Z,80.94
2019-03-28T08:04:37.607Z,80.46
2019-03-28T08:05:37.590Z,79.41
2019-03-28T08:06:49.051Z,79.88
2019-03-28T08:07:44.974Z,80.15
2019-03-28T08:08:39.190Z,81.44
2019-03-28T08:09:37.544Z,80.62
2019-03-28T08:10:37.552Z,79.29
2019-03-28T08:11:38.633Z,79.39
2019-03-28T08:12:37.505Z,78.58
2019-03-28T08:13:37.504Z,77.97
2019-03-28T08:14:37.513Z,75.96
2019-03-28T08:15:37.473Z,76.47
2019-03-28T08:16:37.461Z,77.80
2019-03-28T08:17:37.447Z,78.58
2019-03-28T08:18:37.443Z,78.99
2019-03-28T08:19:39.902Z,78.07
2019-03-28T08:20:37.423Z,76.47
2019-03-28T08:21:37.424Z,75.96
2019-03-28T08:22:37.394Z,76.81
2019-03-28T08:23:37.407Z,76.75
2019-03-28T08:24:37.386Z,76.54
2019-03-28T08:25:37.367Z,77.01
2019-03-28T08:26:37.357Z,76.34
2019-03-28T08:27:37.388Z,75.93
2019-03-28T08:28:37.331Z,76.03
2019-03-28T08:29:37.314Z,77.26
2019-03-28T08:30:37.312Z,77.15
2019-03-28T08:31:40.485Z,76.23
2019-03-28T08:32:39.779Z,78.04
2019-03-28T08:33:37.294Z,78.61
2019-03-28T08:34:37.262Z,77.80
2019-03-28T08:35:37.247Z,78.27
2019-03-28T08:36:37.240Z,77.86
2019-03-28T08:37:37.232Z,75.41
2019-03-28T08:38:37.266Z,75.82
2019-03-28T08:39:37.207Z,74.52
2019-03-28T08:40:39.625Z,75.89
2019-03-28T08:41:37.185Z,77.59
2019-03-28T08:42:37.167Z,76.12
2019-03-28T08:43:37.183Z,76.06
2019-03-28T08:44:37.145Z,75.75
2019-03-28T08:45:37.132Z,75.96
2019-03-28T08:46:37.152Z,74.49
2019-03-28T08:47:37.120Z,73.71
2019-03-28T08:48:37.112Z,75.51
2019-03-28T08:49:37.097Z,74.49
2019-03-28T08:50:37.077Z,74.52
2019-03-28T08:51:37.072Z,74.15
2019-03-28T08:52:37.083Z,74.90
2019-03-28T08:53:37.047Z,74.60
2019-03-28T08:54:37.058Z,76.23
2019-03-28T08:55:37.057Z,75.59
2019-03-28T08:56:37.010Z,74.90
2019-03-28T08:57:37.036Z,74.05
2019-03-28T08:58:38.289Z,75.17
2019-03-28T08:59:36.986Z,76.61
2019-03-28T09:00:51.013Z,75.24
2019-03-28T09:01:37.998Z,73.74
2019-03-28T09:02:36.937Z,73.54
2019-03-28T09:03:36.936Z,74.39
2019-03-28T09:04:36.949Z,75.79
2019-03-28T09:05:36.924Z,76.50
2019-03-28T09:06:36.930Z,75.45
2019-03-28T09:07:36.888Z,74.73
2019-03-28T09:08:36.875Z,74.39
2019-03-28T09:09:36.868Z,75.92
2019-03-28T09:10:36.857Z,73.47
2019-03-28T09:11:36.876Z,73.88
2019-03-28T09:12:36.830Z,73.71
2019-03-28T09:13:36.823Z,73.77
2019-03-28T09:14:37.037Z,73.30
2019-03-28T09:15:43.661Z,73.50
2019-03-28T09:16:37.797Z,74.22
2019-03-28T09:17:36.768Z,74.73
2019-03-28T09:18:36.796Z,73.98
2019-03-28T09:19:39.017Z,73.30
2019-03-28T09:20:36.744Z,74.73
2019-03-28T09:21:36.765Z,73.94
2019-03-28T09:22:38.926Z,73.54
2019-03-28T09:23:36.719Z,74.15
2019-03-28T09:24:36.735Z,73.64
2019-03-28T09:25:36.678Z,73.03
2019-03-28T09:26:36.677Z,72.34
2019-03-28T09:27:36.678Z,72.79
2019-03-28T09:28:36.669Z,73.77
2019-03-28T09:29:36.745Z,74.18
2019-03-28T09:30:47.312Z,73.16
2019-03-28T09:31:37.614Z,73.06
2019-03-28T09:32:36.629Z,74.29
2019-03-28T09:33:36.608Z,73.16
2019-03-28T09:34:36.631Z,73.68
2019-03-28T09:35:36.613Z,73.98
2019-03-28T09:36:36.567Z,74.29
2019-03-28T09:37:36.553Z,73.71
2019-03-28T09:38:36.556Z,73.68
2019-03-28T09:39:36.531Z,74.43
2019-03-28T09:40:36.515Z,73.30
2019-03-28T09:41:36.532Z,74.32
2019-03-28T09:42:36.491Z,74.52
2019-03-28T09:43:36.485Z,76.06
2019-03-28T09:44:36.472Z,73.40
2019-03-28T09:45:36.471Z,73.54
2019-03-28T09:46:36.482Z,73.74
2019-03-28T09:47:36.518Z,74.15
2019-03-28T09:48:36.432Z,74.52
2019-03-28T09:49:36.429Z,73.71
2019-03-28T09:50:36.437Z,73.71
2019-03-28T09:51:36.425Z,73.30
2019-03-28T09:52:36.378Z,73.57
2019-03-28T09:53:36.388Z,74.05
2019-03-28T09:54:36.352Z,73.68
2019-03-28T09:55:36.375Z,72.92
2019-03-28T09:56:36.338Z,73.30
2019-03-28T09:57:36.345Z,73.50
2019-03-28T09:58:36.312Z,73.88
2019-03-28T09:59:36.297Z,70.40
2019-03-28T10:00:36.307Z,71.29
2019-03-28T10:01:36.285Z,70.61
2019-03-28T10:02:36.281Z,70.00
2019-03-28T10:03:36.256Z,68.98
2019-03-28T10:04:36.245Z,69.22
2019-03-28T10:05:38.011Z,70.65
2019-03-28T10:06:36.242Z,69.19
2019-03-28T10:07:38.421Z,69.09
2019-03-28T10:08:36.217Z,69.29
2019-03-28T10:09:36.210Z,70.55
2019-03-28T10:10:36.202Z,67.36
2019-03-28T10:11:36.164Z,66.65
2019-03-28T10:12:36.154Z,68.58
2019-03-28T10:13:36.152Z,68.88
2019-03-28T10:14:36.148Z,67.36
2019-03-28T10:15:37.122Z,68.68
2019-03-28T10:16:36.113Z,65.86
2019-03-28T10:17:36.131Z,66.91
2019-03-28T10:18:36.086Z,68.24
2019-03-28T10:19:36.097Z,67.66
2019-03-28T10:20:36.068Z,64.92
2019-03-28T10:21:37.578Z,67.22
2019-03-28T10:22:36.089Z,64.48
2019-03-28T10:23:36.076Z,63.26
2019-03-28T10:24:36.017Z,64.18
2019-03-28T10:25:36.046Z,63.29
2019-03-28T10:26:35.994Z,64.31
2019-03-28T10:27:36.007Z,64.95
2019-03-28T10:28:35.969Z,65.73
2019-03-28T10:29:35.998Z,65.77
2019-03-28T10:30:35.955Z,64.37
2019-03-28T10:31:35.939Z,66.91
2019-03-28T10:32:35.932Z,65.86
2019-03-28T10:33:35.933Z,65.25
2019-03-28T10:34:35.936Z,65.25
2019-03-28T10:35:35.986Z,65.39
2019-03-28T10:36:35.896Z,67.32
2019-03-28T10:37:35.871Z,67.25
2019-03-28T10:38:35.903Z,67.43
2019-03-28T10:39:35.845Z,66.41
2019-03-28T10:40:36.480Z,65.31
2019-03-28T10:41:35.857Z,65.89
2019-03-28T10:42:35.822Z,66.38
2019-03-28T10:43:35.839Z,64.34
2019-03-28T10:44:35.793Z,67.16
2019-03-28T10:45:35.783Z,62.88
2019-03-28T10:46:35.768Z,62.58
2019-03-28T10:47:35.766Z,62.62
2019-03-28T10:48:35.780Z,62.01
2019-03-28T10:49:35.780Z,61.07
2019-03-28T10:50:42.248Z,62.18
2019-03-28T10:51:36.708Z,61.57
2019-03-28T10:52:35.751Z,60.94
2019-03-28T10:53:35.692Z,61.11
2019-03-28T10:54:35.707Z,61.18
2019-03-28T10:55:35.708Z,59.81
2019-03-28T10:56:35.683Z,58.52
2019-03-28T10:57:35.649Z,59.72
2019-03-28T10:58:35.641Z,60.36
2019-03-28T10:59:35.634Z,62.08
2019-03-28T11:00:35.606Z,62.59
2019-03-28T11:01:47.968Z,62.29
2019-03-28T11:02:36.633Z,64.32
2019-03-28T11:03:35.590Z,62.90
2019-03-28T11:04:35.564Z,62.90
2019-03-28T11:05:35.555Z,63.20
2019-03-28T11:06:35.566Z,62.79
2019-03-28T11:07:35.552Z,63.20
2019-03-28T11:08:36.642Z,63.51
2019-03-28T11:09:35.507Z,64.22
2019-03-28T11:10:35.503Z,62.41
2019-03-28T11:11:35.491Z,62.85
2019-03-28T11:12:35.513Z,62.88
2019-03-28T11:13:35.461Z,63.77
2019-03-28T11:14:35.463Z,64.38
2019-03-28T11:15:35.437Z,64.07
2019-03-28T11:16:35.437Z,63.64
2019-03-28T11:17:35.440Z,64.25
2019-03-28T11:18:35.446Z,61.71
2019-03-28T11:19:35.392Z,62.75
2019-03-28T11:20:35.831Z,62.55
2019-03-28T11:21:35.401Z,63.39
2019-03-28T11:22:35.361Z,63.26
2019-03-28T11:23:35.522Z,62.11
2019-03-28T11:24:35.387Z,63.00
2019-03-28T11:25:35.360Z,62.11
2019-03-28T11:26:35.317Z,61.53
2019-03-28T11:27:35.306Z,63.67
2019-03-28T11:28:35.290Z,63.29
2019-03-28T11:29:35.282Z,63.29
2019-03-28T11:30:35.300Z,63.09
2019-03-28T11:31:45.557Z,62.17
2019-03-28T11:32:36.338Z,63.62
2019-03-28T11:33:35.237Z,62.92
2019-03-28T11:34:35.223Z,63.29
2019-03-28T11:35:35.250Z,63.77
2019-03-28T11:36:35.218Z,63.06
2019-03-28T11:37:35.190Z,62.82
2019-03-28T11:38:35.179Z,63.30
2019-03-28T11:39:35.180Z,61.34
2019-03-28T11:40:35.196Z,61.93
2019-03-28T11:41:35.164Z,60.91
2019-03-28T11:42:35.140Z,59.99
2019-03-28T11:43:35.121Z,59.39
2019-03-28T11:44:35.110Z,59.31
2019-03-28T11:45:35.203Z,60.15
2019-03-28T11:46:35.089Z,60.61
2019-03-28T11:47:35.074Z,61.36
2019-03-28T11:48:35.065Z,60.95
2019-03-28T11:49:35.081Z,62.78
2019-03-28T11:50:35.062Z,62.75
2019-03-28T11:51:36.396Z,62.45
2019-03-28T11:52:35.017Z,63.13
2019-03-28T11:53:35.007Z,61.74
2019-03-28T11:54:35.024Z,61.83
2019-03-28T11:55:34.986Z,61.22
2019-03-28T11:56:34.974Z,61.22
2019-03-28T11:57:34.960Z,61.74
2019-03-28T11:58:34.962Z,61.10
2019-03-28T11:59:34.975Z,62.52
2019-03-28T12:00:34.928Z,61.63
2019-03-28T12:01:34.937Z,61.53
2019-03-28T12:02:34.903Z,60.85
2019-03-28T12:03:34.905Z,62.78
2019-03-28T12:04:34.923Z,63.01
2019-03-28T12:05:34.879Z,63.22
2019-03-28T12:06:34.862Z,63.49
2019-03-28T12:07:34.872Z,62.07
2019-03-28T12:08:34.878Z,63.59
2019-03-28T12:09:34.824Z,63.77
2019-03-28T12:10:34.822Z,60.92
2019-03-28T12:11:34.799Z,61.76
2019-03-28T12:12:34.818Z,61.90
2019-03-28T12:13:44.615Z,62.33
2019-03-28T12:14:35.765Z,63.04
2019-03-28T12:15:34.761Z,63.65
2019-03-28T12:16:34.823Z,63.93
2019-03-28T12:17:34.733Z,62.81
2019-03-28T12:18:34.733Z,62.40
2019-03-28T12:19:34.723Z,61.97
2019-03-28T12:20:34.734Z,62.98
2019-03-28T12:21:34.723Z,63.29
2019-03-28T12:22:34.686Z,63.49
2019-03-28T12:23:34.668Z,63.39
2019-03-28T12:24:34.659Z,63.09
2019-03-28T12:25:34.654Z,64.34
2019-03-28T12:26:34.656Z,64.03
2019-03-28T12:27:34.636Z,64.17
2019-03-28T12:28:34.612Z,66.00
2019-03-28T12:29:35.925Z,65.69
2019-03-28T12:30:34.596Z,64.98
2019-03-28T12:31:34.591Z,65.28
2019-03-28T12:32:34.625Z,64.60
2019-03-28T12:33:34.557Z,65.01
2019-03-28T12:34:34.572Z,65.31
2019-03-28T12:35:34.535Z,64.63
2019-03-28T12:36:34.550Z,65.25
2019-03-28T12:37:34.508Z,64.43
2019-03-28T12:38:34.527Z,65.34
2019-03-28T12:39:34.487Z,65.25
2019-03-28T12:40:34.483Z,66.36
2019-03-28T12:41:34.472Z,64.32
2019-03-28T12:42:34.462Z,65.34
2019-03-28T12:43:34.470Z,65.45
2019-03-28T12:44:34.436Z,65.83
2019-03-28T12:45:34.423Z,64.29
2019-03-28T12:46:34.438Z,64.32
2019-03-28T12:47:42.344Z,64.02
2019-03-28T12:48:35.383Z,65.17
2019-03-28T12:49:34.377Z,65.25
2019-03-28T12:50:34.379Z,65.14
2019-03-28T12:51:34.378Z,65.14
2019-03-28T12:52:34.376Z,64.43